createdAt,value
2019-01-08T00:01:11.358Z,39.10
2019-01-08T00:03:38.091Z,41.80
2019-01-08T00:06:04.963Z,40.17
2019-01-08T00:08:31.723Z,40.23
2019-01-08T00:10:58.611Z,32.97
2019-01-08T00:13:25.342Z,36.17
2019-01-08T00:15:52.098Z,39.83
2019-01-08T00:18:18.835Z,34.80
2019-01-08T00:20:45.567Z,33.37
2019-01-08T00:23:12.417Z,35.07
2019-01-08T00:25:39.255Z,31.93
2019-01-08T00:28:05.992Z,28.73
2019-01-08T00:30:32.751Z,25.70
2019-01-08T00:32:59.746Z,23.27
2019-01-08T00:35:26.455Z,23.93
2019-01-08T00:37:53.607Z,24.13
2019-01-08T00:40:20.369Z,23.00
2019-01-08T00:42:47.179Z,24.47
2019-01-08T00:45:13.883Z,21.90
2019-01-08T00:47:40.932Z,21.43
2019-01-08T00:50:07.736Z,23.53
2019-01-08T00:52:34.612Z,26.03
2019-01-08T00:55:01.476Z,27.77
2019-01-08T00:57:28.223Z,22.50
2019-01-08T00:59:55.041Z,20.67
2019-01-08T01:02:21.841Z,20.47
2019-01-08T01:04:48.595Z,20.37
2019-01-08T01:07:15.371Z,21.47
2019-01-08T01:09:42.243Z,23.27
2019-01-08T01:12:09.099Z,18.90
2019-01-08T01:14:35.855Z,19.03
2019-01-08T01:17:02.723Z,20.23
2019-01-08T01:19:29.501Z,18.83
2019-01-08T01:21:56.371Z,20.57
2019-01-08T01:24:23.124Z,20.77
2019-01-08T01:26:49.916Z,19.27
2019-01-08T01:29:16.972Z,20.63
2019-01-08T01:31:43.963Z,20.10
2019-01-08T01:34:10.710Z,18.73
2019-01-08T01:36:37.499Z,18.70
2019-01-08T01:39:05.567Z,19.13
2019-01-08T01:41:32.575Z,14.97
2019-01-08T01:43:59.415Z,15.63
2019-01-08T01:46:26.157Z,16.20
2019-01-08T01:48:53.027Z,15.87
2019-01-08T01:51:19.808Z,13.63
2019-01-08T01:53:46.555Z,12.67
2019-01-08T01:56:13.343Z,9.50
2019-01-08T01:58:40.095Z,11.40
2019-01-08T02:01:06.854Z,8.90
2019-01-08T02:03:33.623Z,8.63
2019-01-08T02:06:00.361Z,7.77
2019-01-08T02:08:27.128Z,6.50
2019-01-08T02:10:54.081Z,7.77
2019-01-08T02:13:20.831Z,7.67
2019-01-08T02:15:47.544Z,6.43
2019-01-08T02:18:14.679Z,5.00
2019-01-08T02:20:41.459Z,6.97
2019-01-08T02:23:08.226Z,7.87
2019-01-08T02:25:35.073Z,5.97
2019-01-08T02:28:01.938Z,6.17
2019-01-08T02:30:28.647Z,8.07
2019-01-08T02:32:55.483Z,5.70
2019-01-08T02:35:22.243Z,6.23
2019-01-08T02:37:49.005Z,5.43
2019-01-08T02:40:15.959Z,5.20
2019-01-08T02:42:42.812Z,5.93
2019-01-08T02:45:09.775Z,6.27
2019-01-08T02:47:36.658Z,6.37
2019-01-08T02:50:03.744Z,5.83
2019-01-08T02:52:30.475Z,10.40
2019-01-08T02:54:57.363Z,7.43
2019-01-08T02:57:24.231Z,6.87
2019-01-08T02:59:50.971Z,6.93
2019-01-08T03:02:17.824Z,5.77
2019-01-08T03:04:44.695Z,5.77
2019-01-08T03:07:11.435Z,5.23
2019-01-08T03:09:38.419Z,8.60
2019-01-08T03:12:05.263Z,6.33
2019-01-08T03:14:32.134Z,6.20
2019-01-08T03:16:59.011Z,7.20
2019-01-08T03:19:25.788Z,7.33
2019-01-08T03:21:52.616Z,11.23
2019-01-08T03:24:19.387Z,5.13
2019-01-08T03:26:46.255Z,6.67
2019-01-08T03:29:13.023Z,7.07
2019-01-08T03:31:39.864Z,6.00
2019-01-08T03:34:06.635Z,6.17
2019-01-08T03:36:33.375Z,6.03
2019-01-08T03:39:00.206Z,5.00
2019-01-08T03:41:27.183Z,4.97
2019-01-08T03:43:54.170Z,4.40
2019-01-08T03:46:21.007Z,3.93
2019-01-08T03:48:47.887Z,4.97
2019-01-08T03:51:14.667Z,4.67
2019-01-08T03:53:41.555Z,4.93
2019-01-08T03:56:08.367Z,4.60
2019-01-08T03:58:35.111Z,4.37
2019-01-08T04:01:01.851Z,5.67
2019-01-08T04:03:28.731Z,4.30
2019-01-08T04:05:55.519Z,5.63
2019-01-08T04:08:22.243Z,4.27
2019-01-08T04:10:49.168Z,5.17
2019-01-08T04:13:16.138Z,4.43
2019-01-08T04:15:42.903Z,9.60
2019-01-08T04:18:09.811Z,9.10
2019-01-08T04:20:36.686Z,10.30
2019-01-08T04:23:03.551Z,9.67
2019-01-08T04:25:30.271Z,13.37
2019-01-08T04:27:57.131Z,18.37
2019-01-08T04:30:23.860Z,12.17
2019-01-08T04:32:50.621Z,12.20
2019-01-08T04:35:17.499Z,12.57
2019-01-08T04:37:44.259Z,16.40
2019-01-08T04:40:11.031Z,16.20
2019-01-08T04:42:37.755Z,10.10
2019-01-08T04:45:04.754Z,12.83
2019-01-08T04:47:31.511Z,11.60
2019-01-08T04:49:58.307Z,10.23
2019-01-08T04:52:25.072Z,14.90
2019-01-08T04:54:51.775Z,9.70
2019-01-08T04:57:18.471Z,14.63
2019-01-08T04:59:45.194Z,10.77
2019-01-08T05:02:12.019Z,14.93
2019-01-08T05:04:38.783Z,15.77
2019-01-08T05:07:05.548Z,14.40
2019-01-08T05:09:32.303Z,18.47
2019-01-08T05:11:59.154Z,20.00
2019-01-08T05:14:25.904Z,14.97
2019-01-08T05:16:52.615Z,25.13
2019-01-08T05:19:19.456Z,15.93
2019-01-08T05:21:46.224Z,13.83
2019-01-08T05:24:12.947Z,14.07
2019-01-08T05:26:39.813Z,16.37
2019-01-08T05:29:06.538Z,9.60
2019-01-08T05:31:33.275Z,12.23
2019-01-08T05:34:00.142Z,13.33
2019-01-08T05:36:26.964Z,17.77
2019-01-08T05:38:53.718Z,17.03
2019-01-08T05:41:20.475Z,16.37
2019-01-08T05:43:47.230Z,14.20
2019-01-08T05:46:14.011Z,14.10
2019-01-08T05:48:40.718Z,19.03
2019-01-08T05:51:07.507Z,17.97
2019-01-08T05:53:34.250Z,12.30
2019-01-08T05:56:01.012Z,17.97
2019-01-08T05:58:27.805Z,21.87
2019-01-08T06:00:54.555Z,14.60
2019-01-08T06:03:21.299Z,18.93
2019-01-08T06:05:48.171Z,13.07
2019-01-08T06:08:14.919Z,15.37
2019-01-08T06:10:41.750Z,16.10
2019-01-08T06:13:08.585Z,13.70
2019-01-08T06:15:35.347Z,18.70
2019-01-08T06:18:02.325Z,14.00
2019-01-08T06:20:29.224Z,15.83
2019-01-08T06:22:56.086Z,14.80
2019-01-08T06:25:22.856Z,17.57
2019-01-08T06:27:49.640Z,14.53
2019-01-08T06:30:24.551Z,14.10
2019-01-08T06:32:45.345Z,13.07
2019-01-08T06:35:12.495Z,12.93
2019-01-08T06:37:39.391Z,18.33
2019-01-08T06:40:06.314Z,16.60
2019-01-08T06:42:33.190Z,9.90
2019-01-08T06:44:59.922Z,18.87
2019-01-08T06:47:26.671Z,15.13
2019-01-08T06:49:53.412Z,14.07
2019-01-08T06:52:20.283Z,12.57
2019-01-08T06:54:47.160Z,25.83
2019-01-08T06:57:13.918Z,24.43
2019-01-08T06:59:40.864Z,22.90
2019-01-08T07:02:07.655Z,20.50
2019-01-08T07:04:34.443Z,21.13
2019-01-08T07:07:01.283Z,18.93
2019-01-08T07:09:28.283Z,13.03
2019-01-08T07:11:54.990Z,11.33
2019-01-08T07:14:21.769Z,14.77
2019-01-08T07:16:48.618Z,16.87
2019-01-08T07:19:15.423Z,18.30
2019-01-08T07:21:42.306Z,17.60
2019-01-08T07:24:09.091Z,15.77
2019-01-08T07:26:35.859Z,17.03
2019-01-08T07:29:02.576Z,21.93
2019-01-08T07:31:29.297Z,17.70
2019-01-08T07:33:56.179Z,17.87
2019-01-08T07:36:22.947Z,18.80
2019-01-08T07:38:49.731Z,17.17
2019-01-08T07:41:16.544Z,24.40
2019-01-08T07:43:43.300Z,16.00
2019-01-08T07:46:10.151Z,21.53
2019-01-08T07:48:36.875Z,10.73
2019-01-08T07:51:03.703Z,13.87
2019-01-08T07:53:30.535Z,12.43
2019-01-08T07:55:57.282Z,17.23
2019-01-08T07:58:24.167Z,13.47
2019-01-08T08:00:51.038Z,10.30
2019-01-08T08:03:17.884Z,14.83
2019-01-08T08:05:44.622Z,19.97
2019-01-08T08:08:11.387Z,17.13
2019-01-08T08:10:38.096Z,17.63
2019-01-08T08:13:05.051Z,14.40
2019-01-08T08:15:31.855Z,20.13
2019-01-08T08:17:58.587Z,17.47
2019-01-08T08:20:25.439Z,15.53
2019-01-08T08:22:52.305Z,12.67
2019-01-08T08:25:19.192Z,13.77
2019-01-08T08:27:46.047Z,13.27
2019-01-08T08:30:12.751Z,11.90
2019-01-08T08:32:39.484Z,14.23
2019-01-08T08:35:08.488Z,14.83
2019-01-08T08:37:34.975Z,13.70
2019-01-08T08:40:01.996Z,13.03
2019-01-08T08:42:28.749Z,14.10
2019-01-08T08:44:55.471Z,15.10
2019-01-08T08:47:22.215Z,15.20
2019-01-08T08:49:49.071Z,11.50
2019-01-08T08:52:16.032Z,12.07
2019-01-08T08:54:42.790Z,15.03
2019-01-08T08:57:09.567Z,15.37
2019-01-08T08:59:36.390Z,15.33
2019-01-08T09:02:03.399Z,12.83
2019-01-08T09:04:30.123Z,13.03
2019-01-08T09:06:56.860Z,15.90
2019-01-08T09:09:23.596Z,8.90
2019-01-08T09:11:50.369Z,11.57
2019-01-08T09:14:17.249Z,9.43
2019-01-08T09:16:44.011Z,14.53
2019-01-08T09:19:10.887Z,16.33
2019-01-08T09:21:37.618Z,14.67
2019-01-08T09:24:04.490Z,14.00
2019-01-08T09:26:31.223Z,16.77
2019-01-08T09:28:57.965Z,11.53
2019-01-08T09:31:24.684Z,13.77
2019-01-08T09:33:51.526Z,14.23
2019-01-08T09:36:18.371Z,10.77
2019-01-08T09:38:45.239Z,15.67
2019-01-08T09:41:11.999Z,14.43
2019-01-08T09:43:38.956Z,16.70
2019-01-08T09:46:05.951Z,8.67
2019-01-08T09:48:32.821Z,11.17
2019-01-08T09:50:59.559Z,11.47
2019-01-08T09:53:26.310Z,12.63
2019-01-08T09:55:53.209Z,13.43
2019-01-08T09:58:20.031Z,11.30
2019-01-08T10:00:46.804Z,10.50
2019-01-08T10:03:13.663Z,10.30
2019-01-08T10:05:40.441Z,9.20
2019-01-08T10:08:07.259Z,10.70
2019-01-08T10:10:34.115Z,10.37
2019-01-08T10:13:00.875Z,5.97
2019-01-08T10:15:27.758Z,10.07
2019-01-08T10:17:54.641Z,8.87
2019-01-08T10:20:21.399Z,17.17
2019-01-08T10:22:48.237Z,13.10
2019-01-08T10:25:15.110Z,9.43
2019-01-08T10:27:41.881Z,11.03
2019-01-08T10:30:09.243Z,7.73
2019-01-08T10:32:35.983Z,11.03
2019-01-08T10:35:03.207Z,14.80
2019-01-08T10:37:30.069Z,12.83
2019-01-08T10:39:56.915Z,12.10
2019-01-08T10:42:23.729Z,9.73
2019-01-08T10:44:50.591Z,10.37
2019-01-08T10:47:17.343Z,11.00
2019-01-08T10:49:44.104Z,11.33
2019-01-08T10:52:10.930Z,9.40
2019-01-08T10:54:37.701Z,12.93
2019-01-08T10:57:04.423Z,16.20
2019-01-08T10:59:31.468Z,13.43
2019-01-08T11:01:58.202Z,8.67
2019-01-08T11:04:25.143Z,10.47
2019-01-08T11:06:51.871Z,9.73
2019-01-08T11:09:18.792Z,11.10
2019-01-08T11:11:45.550Z,6.63
2019-01-08T11:14:12.317Z,9.33
2019-01-08T11:16:39.255Z,21.60
2019-01-08T11:19:05.983Z,17.93
2019-01-08T11:21:32.903Z,17.87
2019-01-08T11:23:59.868Z,14.90
2019-01-08T11:26:26.675Z,9.17
2019-01-08T11:28:56.515Z,7.90
2019-01-08T11:31:23.295Z,13.07
2019-01-08T11:33:50.037Z,11.57
2019-01-08T11:36:16.751Z,10.40
2019-01-08T11:38:43.483Z,6.00
2019-01-08T11:41:10.395Z,8.70
2019-01-08T11:43:37.251Z,6.53
2019-01-08T11:46:04.093Z,12.27
2019-01-08T11:48:30.851Z,7.07
2019-01-08T11:50:57.751Z,7.03
2019-01-08T11:53:24.607Z,7.80
2019-01-08T11:55:51.418Z,6.37
2019-01-08T11:58:18.299Z,6.47
2019-01-08T12:00:45.182Z,10.30
2019-01-08T12:03:11.947Z,6.43
2019-01-08T12:05:38.725Z,9.93
2019-01-08T12:08:05.455Z,10.53
2019-01-08T12:10:32.291Z,9.77
2019-01-08T12:12:59.432Z,9.50
2019-01-08T12:15:26.211Z,10.63
2019-01-08T12:17:52.924Z,7.73
2019-01-08T12:20:19.634Z,9.73
2019-01-08T12:22:46.519Z,7.90
2019-01-08T12:25:13.285Z,14.97
2019-01-08T12:27:40.165Z,22.50
2019-01-08T12:30:08.515Z,9.97
2019-01-08T12:32:35.255Z,12.83
2019-01-08T12:35:02.139Z,14.63
2019-01-08T12:37:28.990Z,8.37
2019-01-08T12:39:55.971Z,14.27
2019-01-08T12:42:22.836Z,12.43
2019-01-08T12:44:49.611Z,10.20
2019-01-08T12:47:16.370Z,7.00
2019-01-08T12:49:43.095Z,14.07
2019-01-08T12:52:09.832Z,18.03
2019-01-08T12:54:36.672Z,15.43
2019-01-08T12:57:03.650Z,14.87
2019-01-08T12:59:30.608Z,10.30
2019-01-08T13:01:57.355Z,8.60
2019-01-08T13:04:24.083Z,11.50
2019-01-08T13:06:50.786Z,6.80
2019-01-08T13:09:17.653Z,15.30
2019-01-08T13:11:44.381Z,12.80
2019-01-08T13:14:11.092Z,10.20
2019-01-08T13:16:37.959Z,14.30
2019-01-08T13:19:04.917Z,10.20
2019-01-08T13:21:31.615Z,10.03
2019-01-08T13:23:58.476Z,10.57
2019-01-08T13:26:25.295Z,8.97
2019-01-08T13:28:52.031Z,10.30
2019-01-08T13:31:18.747Z,10.00
2019-01-08T13:33:45.481Z,17.30
2019-01-08T13:36:12.249Z,13.17
2019-01-08T13:38:38.998Z,12.77
2019-01-08T13:41:05.993Z,13.03
2019-01-08T13:43:32.697Z,9.23
2019-01-08T13:46:00.648Z,12.90
2019-01-08T13:48:27.381Z,9.30
2019-01-08T13:50:54.263Z,13.63
2019-01-08T13:53:21.010Z,10.67
2019-01-08T13:55:47.774Z,10.17
2019-01-08T13:58:14.513Z,9.93
2019-01-08T14:00:41.384Z,9.30
2019-01-08T14:03:08.250Z,7.47
2019-01-08T14:05:35.088Z,9.93
2019-01-08T14:08:01.987Z,8.10
2019-01-08T14:10:28.879Z,8.50
2019-01-08T14:12:55.650Z,6.57
2019-01-08T14:15:22.394Z,7.67
2019-01-08T14:17:49.362Z,7.40
2019-01-08T14:20:16.257Z,6.07
2019-01-08T14:22:43.138Z,7.73
2019-01-08T14:25:10.131Z,3.53
2019-01-08T14:27:37.055Z,6.27
2019-01-08T14:30:05.019Z,4.00
2019-01-08T14:32:40.351Z,13.37
2019-01-08T14:35:00.509Z,8.80
2019-01-08T14:37:27.247Z,7.87
2019-01-08T14:39:54.160Z,8.77
2019-01-08T14:42:21.271Z,7.93
2019-01-08T14:44:48.235Z,13.13
2019-01-08T14:47:17.381Z,6.10
2019-01-08T14:49:44.241Z,6.27
2019-01-08T14:52:11.339Z,9.37
2019-01-08T14:54:38.319Z,6.77
2019-01-08T14:57:05.218Z,5.33
2019-01-08T14:59:32.090Z,13.43
2019-01-08T15:01:58.911Z,7.33
2019-01-08T15:04:25.685Z,4.37
2019-01-08T15:06:52.664Z,6.67
2019-01-08T15:09:19.423Z,8.57
2019-01-08T15:11:46.402Z,8.23
2019-01-08T15:14:13.283Z,18.70
2019-01-08T15:16:40.078Z,14.37
2019-01-08T15:19:07.032Z,11.17
2019-01-08T15:21:34.003Z,12.17
2019-01-08T15:24:00.891Z,15.70
2019-01-08T15:26:27.763Z,16.90
2019-01-08T15:28:54.473Z,14.13
2019-01-08T15:31:21.320Z,16.53
2019-01-08T15:33:48.184Z,25.33
2019-01-08T15:36:15.070Z,14.00
2019-01-08T15:38:41.927Z,14.23
2019-01-08T15:41:08.667Z,17.13
2019-01-08T15:43:35.644Z,15.17
2019-01-08T15:46:02.472Z,12.73
2019-01-08T15:48:29.323Z,18.37
2019-01-08T15:50:56.291Z,13.47
2019-01-08T15:53:23.167Z,10.40
2019-01-08T15:55:49.932Z,9.97
2019-01-08T15:58:16.931Z,13.03
2019-01-08T16:00:43.781Z,9.00
2019-01-08T16:03:10.644Z,9.03
2019-01-08T16:05:37.603Z,7.10
2019-01-08T16:08:04.375Z,10.23
2019-01-08T16:10:31.131Z,11.00
2019-01-08T16:12:57.983Z,9.93
2019-01-08T16:15:24.724Z,11.40
2019-01-08T16:17:51.490Z,11.67
2019-01-08T16:20:18.463Z,10.77
2019-01-08T16:22:45.167Z,13.40
2019-01-08T16:25:12.054Z,17.30
2019-01-08T16:27:38.757Z,15.30
2019-01-08T16:30:05.728Z,13.90
2019-01-08T16:32:32.535Z,12.53
2019-01-08T16:34:59.413Z,12.43
2019-01-08T16:37:26.291Z,14.80
2019-01-08T16:39:53.103Z,13.40
2019-01-08T16:42:19.964Z,13.97
2019-01-08T16:44:46.715Z,13.70
2019-01-08T16:47:13.550Z,12.43
2019-01-08T16:49:40.298Z,11.67
2019-01-08T16:52:07.288Z,9.00
2019-01-08T16:54:34.003Z,13.03
2019-01-08T16:57:00.835Z,14.17
2019-01-08T16:59:27.611Z,9.87
2019-01-08T17:01:54.380Z,8.77
2019-01-08T17:04:21.382Z,8.87
2019-01-08T17:06:48.387Z,14.17
2019-01-08T17:09:15.117Z,12.00
2019-01-08T17:11:41.983Z,13.53
2019-01-08T17:14:08.867Z,7.83
2019-01-08T17:16:35.671Z,4.27
2019-01-08T17:19:02.443Z,5.37
2019-01-08T17:21:29.430Z,8.53
2019-01-08T17:23:56.264Z,6.50
2019-01-08T17:26:23.129Z,5.03
2019-01-08T17:28:49.997Z,7.30
2019-01-08T17:31:16.699Z,7.57
2019-01-08T17:33:43.559Z,6.93
2019-01-08T17:36:10.314Z,6.10
2019-01-08T17:38:37.335Z,4.60
2019-01-08T17:41:04.172Z,10.27
2019-01-08T17:43:33.610Z,9.53
2019-01-08T17:45:59.735Z,14.10
2019-01-08T17:48:26.511Z,11.40
2019-01-08T17:50:53.355Z,12.50
2019-01-08T17:53:20.211Z,12.57
2019-01-08T17:55:47.074Z,17.10
2019-01-08T17:58:30.994Z,16.67
2019-01-08T18:00:58.006Z,15.67
2019-01-08T18:03:24.815Z,16.30
2019-01-08T18:05:51.639Z,14.13
2019-01-08T18:08:18.500Z,23.67
2019-01-08T18:10:45.351Z,20.50
2019-01-08T18:13:12.405Z,20.70
2019-01-08T18:15:39.135Z,16.33
2019-01-08T18:18:05.983Z,22.63
2019-01-08T18:20:32.943Z,21.97
2019-01-08T18:22:59.737Z,18.80
2019-01-08T18:25:26.516Z,15.00
2019-01-08T18:27:53.378Z,16.47
2019-01-08T18:30:20.119Z,17.00
2019-01-08T18:32:46.975Z,20.97
2019-01-08T18:35:13.771Z,19.73
2019-01-08T18:37:40.539Z,24.73
2019-01-08T18:40:07.376Z,14.93
2019-01-08T18:42:35.263Z,18.60
2019-01-08T18:45:02.195Z,18.30
2019-01-08T18:47:29.558Z,18.23
2019-01-08T18:49:56.379Z,18.87
2019-01-08T18:52:23.109Z,15.20
2019-01-08T18:54:50.606Z,22.27
2019-01-08T18:57:17.624Z,14.93
2019-01-08T18:59:44.379Z,14.73
2019-01-08T19:02:11.099Z,19.63
2019-01-08T19:04:37.951Z,15.70
2019-01-08T19:07:04.919Z,15.40
2019-01-08T19:09:35.930Z,15.63
2019-01-08T19:12:04.519Z,14.73
2019-01-08T19:14:38.967Z,18.70
2019-01-08T19:17:05.839Z,20.87
2019-01-08T19:19:32.717Z,16.93
2019-01-08T19:21:59.540Z,15.10
2019-01-08T19:24:26.566Z,22.40
2019-01-08T19:26:53.363Z,9.70
2019-01-08T19:29:20.215Z,15.77
2019-01-08T19:31:47.123Z,31.07
2019-01-08T19:34:13.891Z,19.77
2019-01-08T19:36:40.831Z,25.27
2019-01-08T19:39:07.763Z,16.00
2019-01-08T19:41:34.831Z,17.50
2019-01-08T19:44:01.695Z,20.57
2019-01-08T19:46:28.537Z,18.17
2019-01-08T19:48:55.383Z,14.57
2019-01-08T19:51:22.255Z,23.63
2019-01-08T19:53:49.103Z,19.93
2019-01-08T19:56:15.843Z,15.23
2019-01-08T19:58:42.546Z,15.53
2019-01-08T20:01:09.331Z,12.83
2019-01-08T20:03:36.203Z,10.93
2019-01-08T20:06:03.092Z,10.80
2019-01-08T20:08:29.888Z,9.43
2019-01-08T20:10:56.724Z,10.07
2019-01-08T20:13:23.567Z,8.57
2019-01-08T20:15:50.443Z,13.23
2019-01-08T20:18:17.195Z,8.63
2019-01-08T20:20:43.947Z,9.13
2019-01-08T20:23:10.723Z,10.17
2019-01-08T20:25:37.470Z,7.47
2019-01-08T20:28:04.377Z,8.80
2019-01-08T20:30:31.094Z,10.27
2019-01-08T20:32:57.884Z,9.57
2019-01-08T20:35:24.855Z,17.57
2019-01-08T20:37:51.759Z,13.33
2019-01-08T20:40:18.749Z,9.17
2019-01-08T20:42:45.460Z,10.20
2019-01-08T20:45:12.330Z,18.33
2019-01-08T20:47:39.206Z,15.83
2019-01-08T20:50:06.121Z,15.00
2019-01-08T20:52:33.031Z,9.37
2019-01-08T20:54:59.902Z,14.33
2019-01-08T20:57:26.796Z,14.90
2019-01-08T20:59:53.546Z,11.73
2019-01-08T21:02:20.331Z,16.17
2019-01-08T21:04:47.135Z,13.50
2019-01-08T21:07:14.099Z,15.50
2019-01-08T21:09:40.859Z,13.72
2019-01-08T21:12:07.683Z,19.23
2019-01-08T21:14:34.407Z,15.00
2019-01-08T21:17:01.255Z,26.77
2019-01-08T21:19:28.015Z,10.53
2019-01-08T21:21:54.872Z,11.83
2019-01-08T21:24:28.582Z,9.90
2019-01-08T21:26:50.436Z,13.57
2019-01-08T21:29:17.199Z,9.77
2019-01-08T21:31:44.331Z,9.30
2019-01-08T21:34:11.223Z,16.37
2019-01-08T21:36:38.078Z,14.57
2019-01-08T21:39:05.758Z,19.43
2019-01-08T21:41:32.767Z,12.70
2019-01-08T21:43:59.889Z,11.87
2019-01-08T21:46:27.807Z,16.07
2019-01-08T21:48:54.574Z,13.27
2019-01-08T21:51:21.675Z,19.43
2019-01-08T21:53:48.811Z,13.33
2019-01-08T21:56:15.603Z,20.67
2019-01-08T21:58:42.591Z,21.57
2019-01-08T22:01:09.415Z,19.27
2019-01-08T22:03:36.301Z,21.63
2019-01-08T22:06:03.230Z,13.40
2019-01-08T22:08:30.150Z,18.07
2019-01-08T22:10:56.908Z,14.40
2019-01-08T22:13:23.683Z,13.40
2019-01-08T22:15:50.567Z,13.03
2019-01-08T22:18:17.595Z,12.53
2019-01-08T22:20:44.355Z,12.30
2019-01-08T22:23:11.911Z,13.83
2019-01-08T22:25:38.981Z,16.70
2019-01-08T22:28:05.940Z,10.40
2019-01-08T22:30:33.094Z,9.73
2019-01-08T22:33:01.619Z,11.13
2019-01-08T22:35:28.543Z,9.87
2019-01-08T22:37:55.248Z,8.53
2019-01-08T22:40:22.183Z,8.63
2019-01-08T22:42:49.303Z,11.33
2019-01-08T22:45:16.289Z,12.80
2019-01-08T22:47:43.461Z,11.53
2019-01-08T22:50:10.399Z,12.60
2019-01-08T22:52:37.850Z,16.87
2019-01-08T22:55:05.082Z,18.83
2019-01-08T22:57:31.919Z,12.07
2019-01-08T22:59:58.686Z,8.47
2019-01-08T23:02:25.682Z,17.53
2019-01-08T23:04:52.620Z,16.13
2019-01-08T23:07:19.455Z,19.93
2019-01-08T23:09:46.312Z,17.17
2019-01-08T23:12:13.275Z,14.83
2019-01-08T23:14:40.127Z,7.33
2019-01-08T23:17:07.111Z,13.03
2019-01-08T23:19:34.066Z,8.83
2019-01-08T23:22:00.809Z,10.53
2019-01-08T23:24:27.755Z,9.00
2019-01-08T23:26:54.731Z,10.67
2019-01-08T23:29:21.582Z,10.87
2019-01-08T23:31:48.433Z,7.60
2019-01-08T23:34:15.411Z,12.63
2019-01-08T23:36:42.204Z,11.03
2019-01-08T23:39:09.048Z,16.30
2019-01-08T23:41:35.871Z,13.30
2019-01-08T23:44:02.911Z,10.93
2019-01-08T23:46:29.638Z,12.67
2019-01-08T23:48:56.478Z,10.40
2019-01-08T23:51:23.311Z,15.97
2019-01-08T23:53:52.187Z,13.37
2019-01-08T23:56:19.161Z,13.23
2019-01-08T23:58:46.011Z,19.33
